sensor_id;sensor_type;location;lat;lon;timestamp;P1;durP1;ratioP1;P2;durP2;ratioP2
55461;SDS011;41327;45.102;20.624;2023-02-26T00:00:56;15.63;;;6.65;;
55461;SDS011;41327;45.102;20.624;2023-02-26T00:03:22;12.18;;;5.75;;
55461;SDS011;41327;45.102;20.624;2023-02-26T00:06:46;10.75;;;4.97;;
55461;SDS011;41327;45.102;20.624;2023-02-26T00:09:21;11.32;;;5.00;;
55461;SDS011;41327;45.102;20.624;2023-02-26T00:11:47;6.80;;;3.97;;
55461;SDS011;41327;45.102;20.624;2023-02-26T00:15:11;6.38;;;3.05;;
55461;SDS011;41327;45.102;20.624;2023-02-26T00:18:38;8.48;;;3.65;;
55461;SDS011;41327;45.102;20.624;2023-02-26T00:22:02;10.10;;;4.30;;
55461;SDS011;41327;45.102;20.624;2023-02-26T00:25:26;10.95;;;4.47;;
55461;SDS011;41327;45.102;20.624;2023-02-26T00:28:50;12.73;;;5.82;;
55461;SDS011;41327;45.102;20.624;2023-02-26T00:32:15;13.73;;;6.43;;
55461;SDS011;41327;45.102;20.624;2023-02-26T00:35:39;9.77;;;5.68;;
55461;SDS011;41327;45.102;20.624;2023-02-26T00:39:11;10.25;;;5.68;;
55461;SDS011;41327;45.102;20.624;2023-02-26T00:42:40;11.63;;;6.57;;
55461;SDS011;41327;45.102;20.624;2023-02-26T00:53:50;9.82;;;4.90;;
55461;SDS011;41327;45.102;20.624;2023-02-26T00:57:17;5.72;;;3.00;;
55461;SDS011;41327;45.102;20.624;2023-02-26T01:00:41;5.97;;;2.90;;
55461;SDS011;41327;45.102;20.624;2023-02-26T01:04:06;10.80;;;5.38;;
55461;SDS011;41327;45.102;20.624;2023-02-26T01:07:32;4.75;;;2.80;;
55461;SDS011;41327;45.102;20.624;2023-02-26T01:10:58;5.82;;;2.90;;
55461;SDS011;41327;45.102;20.624;2023-02-26T01:14:26;8.25;;;4.40;;
55461;SDS011;41327;45.102;20.624;2023-02-26T01:22:12;8.90;;;4.55;;
55461;SDS011;41327;45.102;20.624;2023-02-26T01:24:42;7.60;;;4.30;;
55461;SDS011;41327;45.102;20.624;2023-02-26T01:27:08;7.28;;;4.30;;
55461;SDS011;41327;45.102;20.624;2023-02-26T01:29:33;4.93;;;3.42;;
55461;SDS011;41327;45.102;20.624;2023-02-26T01:32:02;5.43;;;3.75;;
55461;SDS011;41327;45.102;20.624;2023-02-26T01:34:33;4.85;;;3.17;;
55461;SDS011;41327;45.102;20.624;2023-02-26T01:38:06;4.97;;;2.65;;
55461;SDS011;41327;45.102;20.624;2023-02-26T01:41:42;4.78;;;2.92;;
55461;SDS011;41327;45.102;20.624;2023-02-26T01:45:10;3.08;;;2.00;;
55461;SDS011;41327;45.102;20.624;2023-02-26T01:48:52;3.70;;;2.15;;
55461;SDS011;41327;45.102;20.624;2023-02-26T01:56:14;5.00;;;2.92;;
55461;SDS011;41327;45.102;20.624;2023-02-26T01:59:43;3.58;;;2.03;;
55461;SDS011;41327;45.102;20.624;2023-02-26T02:03:08;2.80;;;1.83;;
55461;SDS011;41327;45.102;20.624;2023-02-26T02:06:37;2.97;;;2.05;;
55461;SDS011;41327;45.102;20.624;2023-02-26T02:10:01;2.65;;;2.15;;
55461;SDS011;41327;45.102;20.624;2023-02-26T02:13:33;2.45;;;1.85;;
55461;SDS011;41327;45.102;20.624;2023-02-26T02:27:27;3.30;;;2.03;;
55461;SDS011;41327;45.102;20.624;2023-02-26T02:32:42;2.95;;;2.00;;
55461;SDS011;41327;45.102;20.624;2023-02-26T02:35:12;2.75;;;1.95;;
55461;SDS011;41327;45.102;20.624;2023-02-26T02:37:45;4.75;;;2.30;;
55461;SDS011;41327;45.102;20.624;2023-02-26T02:43:03;3.67;;;1.88;;
55461;SDS011;41327;45.102;20.624;2023-02-26T02:46:05;3.75;;;2.30;;
55461;SDS011;41327;45.102;20.624;2023-02-26T02:48:27;3.83;;;2.42;;
55461;SDS011;41327;45.102;20.624;2023-02-26T02:51:10;3.63;;;2.20;;
55461;SDS011;41327;45.102;20.624;2023-02-26T02:53:45;2.50;;;1.70;;
55461;SDS011;41327;45.102;20.624;2023-02-26T02:56:23;2.42;;;1.80;;
55461;SDS011;41327;45.102;20.624;2023-02-26T02:58:56;4.32;;;2.50;;
55461;SDS011;41327;45.102;20.624;2023-02-26T03:01:27;3.25;;;2.10;;
55461;SDS011;41327;45.102;20.624;2023-02-26T03:06:20;3.10;;;1.80;;
55461;SDS011;41327;45.102;20.624;2023-02-26T03:08:45;2.70;;;1.88;;
55461;SDS011;41327;45.102;20.624;2023-02-26T03:11:12;2.80;;;1.92;;
55461;SDS011;41327;45.102;20.624;2023-02-26T03:13:38;3.10;;;2.10;;
55461;SDS011;41327;45.102;20.624;2023-02-26T03:16:24;2.88;;;2.03;;
55461;SDS011;41327;45.102;20.624;2023-02-26T03:19:32;2.10;;;1.85;;
55461;SDS011;41327;45.102;20.624;2023-02-26T03:25:23;4.22;;;2.53;;
55461;SDS011;41327;45.102;20.624;2023-02-26T03:36:21;4.63;;;2.45;;
55461;SDS011;41327;45.102;20.624;2023-02-26T03:38:55;4.20;;;3.08;;
55461;SDS011;41327;45.102;20.624;2023-02-26T03:41:29;2.90;;;2.13;;
55461;SDS011;41327;45.102;20.624;2023-02-26T03:43:59;2.40;;;1.98;;
55461;SDS011;41327;45.102;20.624;2023-02-26T03:46:41;3.25;;;2.25;;
55461;SDS011;41327;45.102;20.624;2023-02-26T03:49:11;3.65;;;2.58;;
55461;SDS011;41327;45.102;20.624;2023-02-26T03:51:40;4.90;;;2.70;;
55461;SDS011;41327;45.102;20.624;2023-02-26T03:54:09;2.75;;;2.10;;
55461;SDS011;41327;45.102;20.624;2023-02-26T03:56:41;3.70;;;2.38;;
55461;SDS011;41327;45.102;20.624;2023-02-26T03:59:10;3.88;;;2.80;;
55461;SDS011;41327;45.102;20.624;2023-02-26T04:01:44;4.07;;;3.00;;
55461;SDS011;41327;45.102;20.624;2023-02-26T04:04:24;4.63;;;2.80;;
55461;SDS011;41327;45.102;20.624;2023-02-26T04:06:52;2.50;;;1.95;;
55461;SDS011;41327;45.102;20.624;2023-02-26T04:09:18;3.53;;;2.40;;
55461;SDS011;41327;45.102;20.624;2023-02-26T04:11:45;3.75;;;2.55;;
55461;SDS011;41327;45.102;20.624;2023-02-26T04:14:11;3.80;;;2.85;;
55461;SDS011;41327;45.102;20.624;2023-02-26T04:16:36;5.18;;;2.63;;
55461;SDS011;41327;45.102;20.624;2023-02-26T04:19:02;3.75;;;2.78;;
55461;SDS011;41327;45.102;20.624;2023-02-26T04:21:27;3.72;;;2.50;;
55461;SDS011;41327;45.102;20.624;2023-02-26T04:23:53;4.30;;;2.92;;
55461;SDS011;41327;45.102;20.624;2023-02-26T04:26:18;4.55;;;3.38;;
55461;SDS011;41327;45.102;20.624;2023-02-26T04:28:44;6.13;;;3.58;;
55461;SDS011;41327;45.102;20.624;2023-02-26T04:31:09;5.03;;;3.67;;
55461;SDS011;41327;45.102;20.624;2023-02-26T04:33:35;5.28;;;3.15;;
55461;SDS011;41327;45.102;20.624;2023-02-26T04:36:01;4.55;;;3.08;;
55461;SDS011;41327;45.102;20.624;2023-02-26T04:38:26;5.53;;;3.15;;
55461;SDS011;41327;45.102;20.624;2023-02-26T04:40:52;4.53;;;3.10;;
55461;SDS011;41327;45.102;20.624;2023-02-26T04:43:18;5.15;;;3.60;;
55461;SDS011;41327;45.102;20.624;2023-02-26T04:45:44;4.60;;;3.67;;
55461;SDS011;41327;45.102;20.624;2023-02-26T04:48:11;7.35;;;4.00;;
55461;SDS011;41327;45.102;20.624;2023-02-26T04:50:37;6.72;;;3.92;;
55461;SDS011;41327;45.102;20.624;2023-02-26T04:53:02;5.88;;;3.78;;
55461;SDS011;41327;45.102;20.624;2023-02-26T04:55:28;6.72;;;4.20;;
55461;SDS011;41327;45.102;20.624;2023-02-26T04:57:53;5.53;;;3.40;;
55461;SDS011;41327;45.102;20.624;2023-02-26T05:00:19;6.70;;;4.00;;
55461;SDS011;41327;45.102;20.624;2023-02-26T05:02:44;6.13;;;3.78;;
55461;SDS011;41327;45.102;20.624;2023-02-26T05:05:10;6.18;;;3.80;;
55461;SDS011;41327;45.102;20.624;2023-02-26T05:07:36;5.88;;;3.58;;
55461;SDS011;41327;45.102;20.624;2023-02-26T05:10:01;5.95;;;4.03;;
55461;SDS011;41327;45.102;20.624;2023-02-26T05:12:27;5.68;;;3.95;;
55461;SDS011;41327;45.102;20.624;2023-02-26T05:14:53;8.02;;;4.80;;
55461;SDS011;41327;45.102;20.624;2023-02-26T05:17:18;6.50;;;3.95;;
55461;SDS011;41327;45.102;20.624;2023-02-26T05:19:44;7.78;;;4.78;;
55461;SDS011;41327;45.102;20.624;2023-02-26T05:22:09;6.40;;;3.90;;
55461;SDS011;41327;45.102;20.624;2023-02-26T05:24:35;5.95;;;3.80;;
55461;SDS011;41327;45.102;20.624;2023-02-26T05:27:00;5.32;;;3.60;;
55461;SDS011;41327;45.102;20.624;2023-02-26T05:29:26;7.95;;;4.32;;
55461;SDS011;41327;45.102;20.624;2023-02-26T05:31:51;7.90;;;4.32;;
55461;SDS011;41327;45.102;20.624;2023-02-26T05:34:16;6.30;;;3.80;;
55461;SDS011;41327;45.102;20.624;2023-02-26T05:36:42;6.80;;;4.65;;
55461;SDS011;41327;45.102;20.624;2023-02-26T05:39:08;7.95;;;4.45;;
55461;SDS011;41327;45.102;20.624;2023-02-26T05:41:34;6.22;;;4.47;;
55461;SDS011;41327;45.102;20.624;2023-02-26T05:43:59;9.98;;;6.22;;
55461;SDS011;41327;45.102;20.624;2023-02-26T05:46:26;8.85;;;5.47;;
55461;SDS011;41327;45.102;20.624;2023-02-26T05:48:52;7.78;;;4.88;;
55461;SDS011;41327;45.102;20.624;2023-02-26T05:51:17;7.20;;;4.53;;
55461;SDS011;41327;45.102;20.624;2023-02-26T05:53:43;10.18;;;5.93;;
55461;SDS011;41327;45.102;20.624;2023-02-26T05:56:10;8.93;;;5.68;;
55461;SDS011;41327;45.102;20.624;2023-02-26T05:58:35;9.45;;;6.22;;
55461;SDS011;41327;45.102;20.624;2023-02-26T06:01:01;11.13;;;6.35;;
55461;SDS011;41327;45.102;20.624;2023-02-26T06:03:27;8.73;;;6.10;;
55461;SDS011;41327;45.102;20.624;2023-02-26T06:05:52;7.55;;;5.05;;
55461;SDS011;41327;45.102;20.624;2023-02-26T06:08:17;11.55;;;6.45;;
55461;SDS011;41327;45.102;20.624;2023-02-26T06:10:43;10.00;;;5.85;;
55461;SDS011;41327;45.102;20.624;2023-02-26T06:13:08;13.02;;;6.90;;
55461;SDS011;41327;45.102;20.624;2023-02-26T06:15:34;12.57;;;6.75;;
55461;SDS011;41327;45.102;20.624;2023-02-26T06:18:00;12.63;;;7.07;;
55461;SDS011;41327;45.102;20.624;2023-02-26T06:20:25;12.57;;;7.00;;
55461;SDS011;41327;45.102;20.624;2023-02-26T06:22:52;13.20;;;8.57;;
55461;SDS011;41327;45.102;20.624;2023-02-26T06:25:17;12.80;;;7.63;;
55461;SDS011;41327;45.102;20.624;2023-02-26T06:27:42;9.43;;;5.55;;
55461;SDS011;41327;45.102;20.624;2023-02-26T06:30:08;11.15;;;7.57;;
55461;SDS011;41327;45.102;20.624;2023-02-26T06:32:34;22.52;;;11.50;;
55461;SDS011;41327;45.102;20.624;2023-02-26T06:34:59;15.38;;;8.93;;
55461;SDS011;41327;45.102;20.624;2023-02-26T06:37:25;18.13;;;10.05;;
55461;SDS011;41327;45.102;20.624;2023-02-26T06:39:51;17.48;;;9.48;;
55461;SDS011;41327;45.102;20.624;2023-02-26T06:42:16;16.38;;;8.90;;
55461;SDS011;41327;45.102;20.624;2023-02-26T06:44:42;13.93;;;7.68;;
55461;SDS011;41327;45.102;20.624;2023-02-26T06:47:07;11.45;;;7.18;;
55461;SDS011;41327;45.102;20.624;2023-02-26T06:49:33;16.20;;;10.65;;
55461;SDS011;41327;45.102;20.624;2023-02-26T06:51:58;21.85;;;11.48;;
55461;SDS011;41327;45.102;20.624;2023-02-26T06:54:24;13.68;;;7.90;;
55461;SDS011;41327;45.102;20.624;2023-02-26T06:56:49;13.93;;;8.77;;
55461;SDS011;41327;45.102;20.624;2023-02-26T06:59:15;14.60;;;9.85;;
55461;SDS011;41327;45.102;20.624;2023-02-26T07:01:40;13.77;;;8.25;;
55461;SDS011;41327;45.102;20.624;2023-02-26T07:04:06;22.20;;;13.80;;
55461;SDS011;41327;45.102;20.624;2023-02-26T07:06:31;21.23;;;13.60;;
55461;SDS011;41327;45.102;20.624;2023-02-26T07:08:57;33.30;;;18.52;;
55461;SDS011;41327;45.102;20.624;2023-02-26T07:11:22;38.20;;;23.20;;
55461;SDS011;41327;45.102;20.624;2023-02-26T07:13:48;33.70;;;19.20;;
55461;SDS011;41327;45.102;20.624;2023-02-26T07:16:15;36.10;;;19.00;;
55461;SDS011;41327;45.102;20.624;2023-02-26T07:18:41;88.28;;;40.83;;
55461;SDS011;41327;45.102;20.624;2023-02-26T07:21:06;41.45;;;23.63;;
55461;SDS011;41327;45.102;20.624;2023-02-26T07:23:32;81.22;;;39.30;;
55461;SDS011;41327;45.102;20.624;2023-02-26T07:25:57;48.78;;;23.67;;
55461;SDS011;41327;45.102;20.624;2023-02-26T07:28:23;63.55;;;32.40;;
55461;SDS011;41327;45.102;20.624;2023-02-26T07:30:49;49.20;;;24.95;;
55461;SDS011;41327;45.102;20.624;2023-02-26T07:33:15;34.67;;;20.65;;
55461;SDS011;41327;45.102;20.624;2023-02-26T07:35:40;43.03;;;24.60;;
55461;SDS011;41327;45.102;20.624;2023-02-26T07:38:06;47.08;;;24.30;;
55461;SDS011;41327;45.102;20.624;2023-02-26T07:40:32;47.80;;;25.83;;
55461;SDS011;41327;45.102;20.624;2023-02-26T07:42:57;55.42;;;26.58;;
55461;SDS011;41327;45.102;20.624;2023-02-26T07:45:23;49.03;;;25.35;;
55461;SDS011;41327;45.102;20.624;2023-02-26T07:47:51;66.70;;;32.00;;
55461;SDS011;41327;45.102;20.624;2023-02-26T07:50:17;36.42;;;20.42;;
55461;SDS011;41327;45.102;20.624;2023-02-26T07:52:43;30.15;;;16.13;;
55461;SDS011;41327;45.102;20.624;2023-02-26T07:55:10;24.45;;;14.20;;
55461;SDS011;41327;45.102;20.624;2023-02-26T07:57:36;27.55;;;15.32;;
55461;SDS011;41327;45.102;20.624;2023-02-26T08:00:02;24.30;;;12.60;;
55461;SDS011;41327;45.102;20.624;2023-02-26T08:02:28;29.17;;;16.25;;
55461;SDS011;41327;45.102;20.624;2023-02-26T08:04:54;38.25;;;19.45;;
55461;SDS011;41327;45.102;20.624;2023-02-26T08:07:19;52.03;;;26.38;;
55461;SDS011;41327;45.102;20.624;2023-02-26T08:09:45;42.70;;;22.17;;
55461;SDS011;41327;45.102;20.624;2023-02-26T08:12:10;35.72;;;19.42;;
55461;SDS011;41327;45.102;20.624;2023-02-26T08:14:36;42.13;;;21.45;;
55461;SDS011;41327;45.102;20.624;2023-02-26T08:17:03;41.53;;;20.75;;
55461;SDS011;41327;45.102;20.624;2023-02-26T08:19:29;37.97;;;17.98;;
55461;SDS011;41327;45.102;20.624;2023-02-26T08:21:54;38.35;;;20.50;;
55461;SDS011;41327;45.102;20.624;2023-02-26T08:24:20;32.13;;;17.30;;
55461;SDS011;41327;45.102;20.624;2023-02-26T08:26:46;40.30;;;21.13;;
55461;SDS011;41327;45.102;20.624;2023-02-26T08:29:12;28.17;;;16.33;;
55461;SDS011;41327;45.102;20.624;2023-02-26T08:31:37;28.88;;;16.67;;
55461;SDS011;41327;45.102;20.624;2023-02-26T08:34:03;40.22;;;20.88;;
55461;SDS011;41327;45.102;20.624;2023-02-26T08:36:29;26.10;;;15.40;;
55461;SDS011;41327;45.102;20.624;2023-02-26T08:38:55;51.85;;;28.48;;
55461;SDS011;41327;45.102;20.624;2023-02-26T08:41:21;62.75;;;34.13;;
55461;SDS011;41327;45.102;20.624;2023-02-26T08:43:47;44.42;;;25.35;;
55461;SDS011;41327;45.102;20.624;2023-02-26T08:46:12;109.53;;;62.13;;
55461;SDS011;41327;45.102;20.624;2023-02-26T08:48:38;77.00;;;44.92;;
55461;SDS011;41327;45.102;20.624;2023-02-26T08:51:04;30.55;;;18.67;;
55461;SDS011;41327;45.102;20.624;2023-02-26T08:53:29;34.67;;;21.55;;
55461;SDS011;41327;45.102;20.624;2023-02-26T08:55:55;28.35;;;16.92;;
55461;SDS011;41327;45.102;20.624;2023-02-26T08:58:20;31.15;;;17.45;;
55461;SDS011;41327;45.102;20.624;2023-02-26T09:00:46;22.75;;;11.98;;
55461;SDS011;41327;45.102;20.624;2023-02-26T09:03:12;24.25;;;13.68;;
55461;SDS011;41327;45.102;20.624;2023-02-26T09:05:37;30.73;;;18.58;;
55461;SDS011;41327;45.102;20.624;2023-02-26T09:08:05;35.92;;;21.88;;
55461;SDS011;41327;45.102;20.624;2023-02-26T09:10:31;26.60;;;14.88;;
55461;SDS011;41327;45.102;20.624;2023-02-26T09:12:57;26.35;;;15.75;;
55461;SDS011;41327;45.102;20.624;2023-02-26T09:15:22;34.90;;;22.05;;
55461;SDS011;41327;45.102;20.624;2023-02-26T09:17:48;27.60;;;19.00;;
55461;SDS011;41327;45.102;20.624;2023-02-26T09:20:14;30.88;;;18.67;;
55461;SDS011;41327;45.102;20.624;2023-02-26T09:22:52;36.90;;;22.73;;
55461;SDS011;41327;45.102;20.624;2023-02-26T09:25:22;39.85;;;22.85;;
55461;SDS011;41327;45.102;20.624;2023-02-26T09:27:48;29.73;;;18.73;;
55461;SDS011;41327;45.102;20.624;2023-02-26T09:30:19;44.35;;;24.25;;
55461;SDS011;41327;45.102;20.624;2023-02-26T09:32:45;56.60;;;32.83;;
55461;SDS011;41327;45.102;20.624;2023-02-26T09:35:11;54.45;;;29.30;;
55461;SDS011;41327;45.102;20.624;2023-02-26T09:37:37;106.35;;;48.78;;
55461;SDS011;41327;45.102;20.624;2023-02-26T09:40:05;71.80;;;36.22;;
55461;SDS011;41327;45.102;20.624;2023-02-26T09:42:41;62.88;;;34.22;;
55461;SDS011;41327;45.102;20.624;2023-02-26T09:45:21;44.88;;;26.08;;
55461;SDS011;41327;45.102;20.624;2023-02-26T09:47:51;58.88;;;31.35;;
55461;SDS011;41327;45.102;20.624;2023-02-26T09:50:22;55.60;;;29.10;;
55461;SDS011;41327;45.102;20.624;2023-02-26T09:55:29;60.70;;;29.80;;
55461;SDS011;41327;45.102;20.624;2023-02-26T10:01:22;47.17;;;27.73;;
55461;SDS011;41327;45.102;20.624;2023-02-26T10:10:08;53.33;;;35.38;;
55461;SDS011;41327;45.102;20.624;2023-02-26T10:12:40;47.45;;;27.95;;
55461;SDS011;41327;45.102;20.624;2023-02-26T10:15:18;43.70;;;25.95;;
55461;SDS011;41327;45.102;20.624;2023-02-26T10:17:53;68.28;;;38.78;;
55461;SDS011;41327;45.102;20.624;2023-02-26T10:20:42;116.32;;;63.28;;
55461;SDS011;41327;45.102;20.624;2023-02-26T10:29:06;53.60;;;29.35;;
55461;SDS011;41327;45.102;20.624;2023-02-26T10:31:32;53.08;;;26.30;;
55461;SDS011;41327;45.102;20.624;2023-02-26T10:39:38;25.92;;;13.65;;
55461;SDS011;41327;45.102;20.624;2023-02-26T10:42:20;30.33;;;18.10;;
55461;SDS011;41327;45.102;20.624;2023-02-26T10:47:55;27.55;;;15.43;;
55461;SDS011;41327;45.102;20.624;2023-02-26T10:50:21;39.42;;;20.48;;
55461;SDS011;41327;45.102;20.624;2023-02-26T10:52:47;37.85;;;23.35;;
55461;SDS011;41327;45.102;20.624;2023-02-26T10:58:06;26.52;;;15.65;;
55461;SDS011;41327;45.102;20.624;2023-02-26T11:00:39;96.93;;;41.35;;
55461;SDS011;41327;45.102;20.624;2023-02-26T11:03:06;32.33;;;15.75;;
55461;SDS011;41327;45.102;20.624;2023-02-26T11:05:34;63.95;;;31.30;;
55461;SDS011;41327;45.102;20.624;2023-02-26T11:08:14;113.50;;;53.38;;
55461;SDS011;41327;45.102;20.624;2023-02-26T11:10:50;112.90;;;47.25;;
55461;SDS011;41327;45.102;20.624;2023-02-26T11:13:17;50.25;;;30.40;;
55461;SDS011;41327;45.102;20.624;2023-02-26T11:15:45;50.60;;;29.30;;
55461;SDS011;41327;45.102;20.624;2023-02-26T11:18:17;50.40;;;34.80;;
55461;SDS011;41327;45.102;20.624;2023-02-26T11:20:46;30.17;;;18.38;;
55461;SDS011;41327;45.102;20.624;2023-02-26T11:23:12;34.22;;;23.40;;
55461;SDS011;41327;45.102;20.624;2023-02-26T11:25:41;33.35;;;20.05;;
55461;SDS011;41327;45.102;20.624;2023-02-26T11:28:17;32.33;;;19.88;;
55461;SDS011;41327;45.102;20.624;2023-02-26T11:30:43;50.47;;;23.38;;
55461;SDS011;41327;45.102;20.624;2023-02-26T11:36:18;41.22;;;21.95;;
55461;SDS011;41327;45.102;20.624;2023-02-26T11:38:45;94.50;;;44.13;;
55461;SDS011;41327;45.102;20.624;2023-02-26T11:41:16;47.40;;;23.73;;
55461;SDS011;41327;45.102;20.624;2023-02-26T11:43:42;36.40;;;18.90;;
55461;SDS011;41327;45.102;20.624;2023-02-26T11:46:09;97.13;;;45.10;;
55461;SDS011;41327;45.102;20.624;2023-02-26T11:51:09;63.03;;;30.70;;
55461;SDS011;41327;45.102;20.624;2023-02-26T11:53:47;33.92;;;20.48;;
55461;SDS011;41327;45.102;20.624;2023-02-26T11:56:28;33.67;;;18.45;;
55461;SDS011;41327;45.102;20.624;2023-02-26T11:59:22;36.28;;;20.77;;
55461;SDS011;41327;45.102;20.624;2023-02-26T12:01:48;34.35;;;20.70;;
55461;SDS011;41327;45.102;20.624;2023-02-26T12:04:17;35.85;;;21.00;;
55461;SDS011;41327;45.102;20.624;2023-02-26T12:06:52;29.60;;;17.48;;
55461;SDS011;41327;45.102;20.624;2023-02-26T12:09:19;29.65;;;18.38;;
55461;SDS011;41327;45.102;20.624;2023-02-26T12:12:04;31.30;;;18.77;;
55461;SDS011;41327;45.102;20.624;2023-02-26T12:17:09;32.60;;;19.25;;
55461;SDS011;41327;45.102;20.624;2023-02-26T12:28:31;34.10;;;20.90;;
55461;SDS011;41327;45.102;20.624;2023-02-26T12:31:11;41.13;;;25.50;;
55461;SDS011;41327;45.102;20.624;2023-02-26T12:40:04;28.65;;;17.77;;
55461;SDS011;41327;45.102;20.624;2023-02-26T12:48:11;32.80;;;19.10;;
55461;SDS011;41327;45.102;20.624;2023-02-26T12:51:11;26.95;;;16.70;;
55461;SDS011;41327;45.102;20.624;2023-02-26T13:02:27;35.85;;;22.98;;
55461;SDS011;41327;45.102;20.624;2023-02-26T13:07:42;35.25;;;21.45;;
55461;SDS011;41327;45.102;20.624;2023-02-26T13:10:29;35.55;;;21.85;;
55461;SDS011;41327;45.102;20.624;2023-02-26T13:13:00;30.10;;;19.27;;
55461;SDS011;41327;45.102;20.624;2023-02-26T13:21:53;30.00;;;21.02;;
55461;SDS011;41327;45.102;20.624;2023-02-26T13:24:23;53.13;;;29.55;;
55461;SDS011;41327;45.102;20.624;2023-02-26T13:26:52;34.88;;;22.27;;
55461;SDS011;41327;45.102;20.624;2023-02-26T13:29:26;49.50;;;29.83;;
55461;SDS011;41327;45.102;20.624;2023-02-26T13:31:55;30.42;;;20.65;;
55461;SDS011;41327;45.102;20.624;2023-02-26T13:34:34;35.28;;;22.52;;
55461;SDS011;41327;45.102;20.624;2023-02-26T13:37:04;41.72;;;23.85;;
55461;SDS011;41327;45.102;20.624;2023-02-26T13:39:40;52.95;;;31.83;;
55461;SDS011;41327;45.102;20.624;2023-02-26T13:45:10;54.53;;;30.37;;
55461;SDS011;41327;45.102;20.624;2023-02-26T13:50:43;50.47;;;27.58;;
55461;SDS011;41327;45.102;20.624;2023-02-26T13:55:50;45.42;;;24.80;;
55461;SDS011;41327;45.102;20.624;2023-02-26T13:58:24;48.50;;;27.48;;
55461;SDS011;41327;45.102;20.624;2023-02-26T14:01:13;62.15;;;32.33;;
55461;SDS011;41327;45.102;20.624;2023-02-26T14:04:22;51.17;;;31.40;;
55461;SDS011;41327;45.102;20.624;2023-02-26T14:06:55;46.55;;;27.23;;
55461;SDS011;41327;45.102;20.624;2023-02-26T14:24:57;40.63;;;24.92;;
55461;SDS011;41327;45.102;20.624;2023-02-26T14:30:02;56.03;;;32.05;;
55461;SDS011;41327;45.102;20.624;2023-02-26T14:32:44;36.80;;;24.60;;
55461;SDS011;41327;45.102;20.624;2023-02-26T14:35:18;40.47;;;26.23;;
55461;SDS011;41327;45.102;20.624;2023-02-26T14:37:48;44.65;;;27.90;;
55461;SDS011;41327;45.102;20.624;2023-02-26T14:40:21;43.92;;;27.23;;
55461;SDS011;41327;45.102;20.624;2023-02-26T14:42:56;39.15;;;23.67;;
55461;SDS011;41327;45.102;20.624;2023-02-26T14:48:03;47.38;;;27.67;;
55461;SDS011;41327;45.102;20.624;2023-02-26T14:50:37;58.67;;;30.45;;
55461;SDS011;41327;45.102;20.624;2023-02-26T14:53:21;51.30;;;27.95;;
55461;SDS011;41327;45.102;20.624;2023-02-26T15:01:49;50.55;;;27.25;;
55461;SDS011;41327;45.102;20.624;2023-02-26T15:10:51;137.70;;;53.92;;
55461;SDS011;41327;45.102;20.624;2023-02-26T15:21:16;67.03;;;38.75;;
55461;SDS011;41327;45.102;20.624;2023-02-26T15:23:55;43.10;;;28.27;;
55461;SDS011;41327;45.102;20.624;2023-02-26T15:26:23;68.72;;;41.50;;
55461;SDS011;41327;45.102;20.624;2023-02-26T15:28:52;58.13;;;36.45;;
55461;SDS011;41327;45.102;20.624;2023-02-26T15:31:19;61.25;;;36.45;;
55461;SDS011;41327;45.102;20.624;2023-02-26T15:33:48;69.50;;;42.55;;
55461;SDS011;41327;45.102;20.624;2023-02-26T15:36:17;52.65;;;31.40;;
55461;SDS011;41327;45.102;20.624;2023-02-26T15:38:52;157.32;;;74.00;;
55461;SDS011;41327;45.102;20.624;2023-02-26T15:41:19;139.43;;;70.35;;
55461;SDS011;41327;45.102;20.624;2023-02-26T15:43:49;133.90;;;77.07;;
55461;SDS011;41327;45.102;20.624;2023-02-26T15:46:16;71.25;;;39.97;;
55461;SDS011;41327;45.102;20.624;2023-02-26T15:48:55;69.65;;;38.72;;
55461;SDS011;41327;45.102;20.624;2023-02-26T15:51:24;42.85;;;24.40;;
55461;SDS011;41327;45.102;20.624;2023-02-26T15:53:51;37.97;;;25.60;;
55461;SDS011;41327;45.102;20.624;2023-02-26T15:56:23;43.05;;;27.77;;
55461;SDS011;41327;45.102;20.624;2023-02-26T15:58:51;41.63;;;25.85;;
55461;SDS011;41327;45.102;20.624;2023-02-26T16:01:22;30.85;;;21.15;;
55461;SDS011;41327;45.102;20.624;2023-02-26T16:03:51;36.63;;;23.60;;
55461;SDS011;41327;45.102;20.624;2023-02-26T16:06:26;53.90;;;27.85;;
55461;SDS011;41327;45.102;20.624;2023-02-26T16:08:56;47.83;;;25.42;;
55461;SDS011;41327;45.102;20.624;2023-02-26T16:11:26;57.72;;;29.67;;
55461;SDS011;41327;45.102;20.624;2023-02-26T16:13:55;49.65;;;26.98;;
55461;SDS011;41327;45.102;20.624;2023-02-26T16:16:24;83.47;;;40.22;;
55461;SDS011;41327;45.102;20.624;2023-02-26T16:18:52;114.03;;;54.55;;
55461;SDS011;41327;45.102;20.624;2023-02-26T16:21:22;141.00;;;56.00;;
55461;SDS011;41327;45.102;20.624;2023-02-26T16:23:53;165.93;;;72.35;;
55461;SDS011;41327;45.102;20.624;2023-02-26T16:26:32;98.78;;;44.50;;
55461;SDS011;41327;45.102;20.624;2023-02-26T16:29:03;126.47;;;55.47;;
55461;SDS011;41327;45.102;20.624;2023-02-26T16:31:38;104.00;;;47.75;;
55461;SDS011;41327;45.102;20.624;2023-02-26T16:34:20;90.03;;;41.65;;
55461;SDS011;41327;45.102;20.624;2023-02-26T16:37:21;192.23;;;81.97;;
55461;SDS011;41327;45.102;20.624;2023-02-26T16:39:46;89.32;;;43.08;;
55461;SDS011;41327;45.102;20.624;2023-02-26T16:42:21;73.60;;;38.17;;
55461;SDS011;41327;45.102;20.624;2023-02-26T16:45:00;77.10;;;41.50;;
55461;SDS011;41327;45.102;20.624;2023-02-26T16:47:27;92.60;;;48.58;;
55461;SDS011;41327;45.102;20.624;2023-02-26T16:49:53;69.32;;;37.63;;
55461;SDS011;41327;45.102;20.624;2023-02-26T16:52:21;44.97;;;23.88;;
55461;SDS011;41327;45.102;20.624;2023-02-26T16:54:59;61.08;;;30.42;;
55461;SDS011;41327;45.102;20.624;2023-02-26T16:57:34;41.47;;;23.70;;
55461;SDS011;41327;45.102;20.624;2023-02-26T17:00:10;44.35;;;25.00;;
55461;SDS011;41327;45.102;20.624;2023-02-26T17:02:41;42.38;;;23.08;;
55461;SDS011;41327;45.102;20.624;2023-02-26T17:05:22;34.83;;;19.40;;
55461;SDS011;41327;45.102;20.624;2023-02-26T17:07:54;50.40;;;25.27;;
55461;SDS011;41327;45.102;20.624;2023-02-26T17:10:29;40.35;;;22.38;;
55461;SDS011;41327;45.102;20.624;2023-02-26T17:13:02;53.97;;;27.25;;
55461;SDS011;41327;45.102;20.624;2023-02-26T17:15:36;39.38;;;21.77;;
55461;SDS011;41327;45.102;20.624;2023-02-26T17:18:02;46.58;;;24.67;;
55461;SDS011;41327;45.102;20.624;2023-02-26T17:20:28;35.72;;;22.08;;
55461;SDS011;41327;45.102;20.624;2023-02-26T17:22:55;27.88;;;16.90;;
55461;SDS011;41327;45.102;20.624;2023-02-26T17:25:21;39.10;;;23.38;;
55461;SDS011;41327;45.102;20.624;2023-02-26T17:27:49;32.85;;;17.58;;
55461;SDS011;41327;45.102;20.624;2023-02-26T17:30:16;29.83;;;16.63;;
55461;SDS011;41327;45.102;20.624;2023-02-26T17:32:44;25.55;;;15.57;;
55461;SDS011;41327;45.102;20.624;2023-02-26T17:35:13;37.13;;;20.63;;
55461;SDS011;41327;45.102;20.624;2023-02-26T17:37:40;36.05;;;20.58;;
55461;SDS011;41327;45.102;20.624;2023-02-26T17:45:52;25.50;;;16.60;;
55461;SDS011;41327;45.102;20.624;2023-02-26T17:48:22;23.60;;;15.02;;
55461;SDS011;41327;45.102;20.624;2023-02-26T17:50:51;20.95;;;13.65;;
55461;SDS011;41327;45.102;20.624;2023-02-26T17:53:19;23.95;;;14.98;;
55461;SDS011;41327;45.102;20.624;2023-02-26T17:55:46;18.48;;;11.85;;